Time;durP1;ratioP1;P1;durP2;ratioP2;P2;SDS_P1;SDS_P2;PMS_P1;PMS_P2;Temp;Humidity;BMP_temperature;BMP_pressure;BME280_temperature;BME280_humidity;BME280_pressure;Samples;Min_cycle;Max_cycle;Signal;HPM_P1;HPM_P2
2022/08/21 00:02:12;;;;;;;7.78;2.67;;;16.10;99.90;;;;;;6176786;23;20020;-86
2022/08/21 00:04:38;;;;;;;8.95;2.40;;;16.00;99.90;;;;;;6174412;22;20017;-86
2022/08/21 00:07:03;;;;;;;7.72;3.00;;;16.00;99.90;;;;;;6173799;23;20412;-86
2022/08/21 00:09:29;;;;;;;8.80;2.75;;;15.90;99.90;;;;;;6174556;23;20095;-86
2022/08/21 00:11:55;;;;;;;9.55;2.88;;;15.90;99.90;;;;;;6176300;23;20032;-86
2022/08/21 00:14:20;;;;;;;7.70;2.78;;;15.90;99.90;;;;;;6174702;23;20337;-86
2022/08/21 00:16:46;;;;;;;8.02;3.50;;;15.80;99.90;;;;;;6174506;23;20044;-86
2022/08/21 00:19:11;;;;;;;9.73;3.10;;;15.80;99.90;;;;;;6174721;23;20127;-86
2022/08/21 00:21:37;;;;;;;7.70;3.10;;;15.70;99.90;;;;;;6173679;23;20009;-86
2022/08/21 00:24:03;;;;;;;7.88;2.67;;;15.70;99.90;;;;;;6149708;23;20098;-86
2022/08/21 00:26:29;;;;;;;8.38;2.70;;;15.70;99.90;;;;;;6175034;22;20401;-86
2022/08/21 00:28:54;;;;;;;8.75;2.80;;;15.60;99.90;;;;;;6149289;23;20063;-86
2022/08/21 00:31:20;;;;;;;8.35;3.03;;;15.60;99.90;;;;;;6150034;23;20094;-86
2022/08/21 00:33:46;;;;;;;7.65;2.60;;;15.50;99.90;;;;;;6149394;23;20053;-86
2022/08/21 00:36:13;;;;;;;6.85;2.58;;;15.60;99.90;;;;;;6174334;23;20092;-86
2022/08/21 00:38:38;;;;;;;9.45;3.10;;;15.50;99.90;;;;;;6174192;22;20009;-86
2022/08/21 00:41:07;;;;;;;7.72;2.60;;;15.50;99.90;;;;;;6174663;23;20139;-86
2022/08/21 00:43:36;;;;;;;5.97;2.40;;;15.40;99.90;;;;;;6176089;23;20080;-86
2022/08/21 00:46:03;;;;;;;8.93;2.72;;;15.40;99.90;;;;;;6174323;22;20045;-86
2022/08/21 00:48:28;;;;;;;4.25;2.17;;;15.40;99.90;;;;;;6175025;22;20062;-86
2022/08/21 00:51:03;;;;;;;5.63;2.40;;;15.40;99.90;;;;;;6173239;23;20509;-86
2022/08/21 00:53:30;;;;;;;11.18;2.92;;;15.30;99.90;;;;;;6149812;22;20021;-86
2022/08/21 00:55:59;;;;;;;10.05;2.80;;;15.30;99.90;;;;;;6173981;22;20373;-86
2022/08/21 00:58:30;;;;;;;10.00;3.60;;;15.30;99.90;;;;;;6176324;22;20225;-86
2022/08/21 01:00:56;;;;;;;7.18;2.85;;;15.30;99.90;;;;;;6173949;22;20082;-86
2022/08/21 01:03:25;;;;;;;6.05;2.53;;;15.30;99.90;;;;;;6174060;23;20448;-86
2022/08/21 01:05:52;;;;;;;11.10;2.78;;;15.30;99.90;;;;;;6148685;22;20028;-86
2022/08/21 01:08:19;;;;;;;7.80;2.63;;;15.30;99.90;;;;;;6175801;22;20150;-86
2022/08/21 01:10:46;;;;;;;8.02;2.78;;;15.30;99.90;;;;;;6175741;23;20017;-86
2022/08/21 01:13:16;;;;;;;11.18;2.60;;;15.20;99.90;;;;;;6149774;23;20104;-86
2022/08/21 01:15:46;;;;;;;6.05;3.15;;;15.20;99.90;;;;;;6174111;22;20350;-86
2022/08/21 01:18:12;;;;;;;6.97;3.20;;;15.20;99.90;;;;;;6173753;22;20047;-86
2022/08/21 01:20:42;;;;;;;8.55;2.83;;;15.10;99.90;;;;;;6173984;22;20048;-86
2022/08/21 01:23:07;;;;;;;7.78;2.72;;;15.10;99.90;;;;;;6176092;22;20058;-86
2022/08/21 01:25:34;;;;;;;6.45;2.80;;;15.00;99.90;;;;;;6175925;23;20028;-86
2022/08/21 01:28:08;;;;;;;7.28;2.95;;;15.00;99.90;;;;;;6175421;23;20525;-86
2022/08/21 01:30:36;;;;;;;9.65;3.15;;;14.90;99.90;;;;;;6148979;22;20015;-86
2022/08/21 01:33:02;;;;;;;8.00;2.90;;;14.90;99.90;;;;;;6173734;22;20480;-86
2022/08/21 01:35:27;;;;;;;7.70;3.45;;;14.90;99.90;;;;;;6149344;23;20013;-86
2022/08/21 01:37:53;;;;;;;9.10;3.40;;;14.80;99.90;;;;;;6173895;23;20025;-86
2022/08/21 01:40:19;;;;;;;10.82;2.97;;;14.80;99.90;;;;;;6148715;23;20020;-86
2022/08/21 01:42:46;;;;;;;6.35;2.90;;;14.80;99.90;;;;;;6173900;23;20067;-86
2022/08/21 01:45:13;;;;;;;7.32;3.38;;;14.80;99.90;;;;;;6173965;22;20017;-86
2022/08/21 01:47:39;;;;;;;9.13;3.03;;;14.80;99.90;;;;;;6173590;22;20066;-86
2022/08/21 01:50:08;;;;;;;8.75;3.47;;;14.70;99.90;;;;;;6175730;23;20050;-86
2022/08/21 01:52:34;;;;;;;9.95;3.90;;;14.70;99.90;;;;;;6148671;23;20021;-86
2022/08/21 01:54:59;;;;;;;8.13;3.88;;;14.70;99.90;;;;;;6124697;23;20062;-86
2022/08/21 01:57:25;;;;;;;9.27;3.78;;;14.60;99.90;;;;;;6149844;23;20050;-86
2022/08/21 01:59:51;;;;;;;9.65;3.45;;;14.60;99.90;;;;;;6149110;23;20052;-86
2022/08/21 02:02:16;;;;;;;4.68;2.83;;;14.60;99.90;;;;;;6148707;23;20092;-86
2022/08/21 02:04:42;;;;;;;10.75;4.00;;;14.60;99.90;;;;;;6175720;23;20050;-86
2022/08/21 02:07:08;;;;;;;12.68;3.83;;;14.60;99.90;;;;;;6149272;23;20101;-86
2022/08/21 02:09:33;;;;;;;10.90;4.47;;;14.60;99.90;;;;;;6124765;23;20345;-86
2022/08/21 02:11:59;;;;;;;6.70;3.60;;;14.60;99.90;;;;;;6149805;23;20013;-86
2022/08/21 02:14:25;;;;;;;10.32;4.55;;;14.50;99.90;;;;;;6148598;23;20013;-86
2022/08/21 02:16:51;;;;;;;10.00;4.80;;;14.60;99.90;;;;;;6174913;23;20017;-86
2022/08/21 02:19:17;;;;;;;15.93;4.90;;;14.50;99.90;;;;;;6149335;23;20504;-86
2022/08/21 02:21:43;;;;;;;12.20;4.70;;;14.50;99.90;;;;;;6175067;23;20027;-86
2022/08/21 02:24:09;;;;;;;12.65;5.28;;;14.50;99.90;;;;;;6124878;23;20017;-86
2022/08/21 02:26:35;;;;;;;9.13;5.43;;;14.50;99.90;;;;;;6148842;23;20021;-86
2022/08/21 02:29:02;;;;;;;10.77;5.35;;;14.50;99.90;;;;;;6124578;23;20023;-86
2022/08/21 02:31:28;;;;;;;10.57;5.72;;;14.50;99.90;;;;;;6174907;23;20009;-86
2022/08/21 02:33:54;;;;;;;8.73;5.18;;;14.50;99.90;;;;;;6175399;23;20032;-86
2022/08/21 02:36:20;;;;;;;12.07;5.63;;;14.50;99.90;;;;;;6124233;23;20375;-86
2022/08/21 02:38:46;;;;;;;11.63;5.78;;;14.50;99.90;;;;;;6148668;23;20020;-86
2022/08/21 02:41:20;;;;;;;13.52;6.38;;;14.40;99.90;;;;;;6175603;23;20021;-85
2022/08/21 02:43:46;;;;;;;11.40;6.10;;;14.20;99.90;;;;;;6175670;23;20017;-86
2022/08/21 02:46:14;;;;;;;11.98;5.80;;;14.50;99.90;;;;;;6148394;23;20074;-86
2022/08/21 02:48:40;;;;;;;11.18;5.70;;;14.40;99.90;;;;;;6175520;23;20055;-86
2022/08/21 02:51:12;;;;;;;9.27;4.93;;;14.40;99.90;;;;;;6168523;23;20025;-86
2022/08/21 02:53:38;;;;;;;12.30;5.82;;;14.40;99.90;;;;;;6174450;23;20014;-86
2022/08/21 02:56:07;;;;;;;10.52;5.80;;;14.40;99.90;;;;;;6174693;23;20017;-86
2022/08/21 02:58:38;;;;;;;12.05;5.97;;;14.40;99.90;;;;;;6150036;22;20021;-86
2022/08/21 03:01:09;;;;;;;12.00;6.10;;;14.40;99.90;;;;;;6174860;22;20013;-86
2022/08/21 03:03:39;;;;;;;9.35;5.15;;;14.40;99.90;;;;;;6176609;22;20017;-86
2022/08/21 03:06:07;;;;;;;10.52;5.75;;;14.40;99.90;;;;;;6174624;22;20013;-86
2022/08/21 03:08:34;;;;;;;11.00;6.13;;;14.30;99.90;;;;;;6176119;23;20025;-86
2022/08/21 03:11:00;;;;;;;11.77;5.95;;;14.30;99.90;;;;;;6174948;22;20028;-86
2022/08/21 03:13:27;;;;;;;12.05;6.05;;;14.40;99.90;;;;;;6175425;22;20447;-86
2022/08/21 03:15:52;;;;;;;11.52;6.30;;;14.30;99.90;;;;;;6175928;23;20181;-86
2022/08/21 03:18:18;;;;;;;11.00;6.03;;;14.30;99.90;;;;;;6176889;23;20013;-86
2022/08/21 03:20:45;;;;;;;9.20;5.28;;;14.30;99.90;;;;;;6174892;23;20013;-86
2022/08/21 03:23:11;;;;;;;9.63;5.05;;;14.80;99.90;;;;;;6174443;23;20059;-86
2022/08/21 03:25:37;;;;;;;9.00;5.65;;;14.30;99.90;;;;;;6174612;22;20453;-86
2022/08/21 03:28:06;;;;;;;9.68;5.78;;;14.30;99.90;;;;;;6176221;22;20361;-86
2022/08/21 03:30:32;;;;;;;11.48;6.00;;;14.30;99.90;;;;;;6174343;23;20017;-86
2022/08/21 03:32:59;;;;;;;11.52;6.00;;;14.20;99.90;;;;;;6174358;23;20017;-86
2022/08/21 03:35:25;;;;;;;9.13;5.75;;;14.20;99.90;;;;;;6150164;23;20019;-86
2022/08/21 03:37:51;;;;;;;11.55;5.38;;;14.20;99.90;;;;;;6174328;23;20028;-86
2022/08/21 03:40:18;;;;;;;11.65;7.20;;;14.20;99.90;;;;;;6176568;23;20017;-86
2022/08/21 03:42:46;;;;;;;12.85;6.78;;;14.20;99.90;;;;;;6176285;22;20106;-86
2022/08/21 03:45:13;;;;;;;8.00;5.22;;;14.10;99.90;;;;;;6175760;22;20050;-86
2022/08/21 03:47:50;;;;;;;10.90;6.43;;;14.10;99.90;;;;;;6174195;23;20021;-86
2022/08/21 03:50:17;;;;;;;13.00;6.30;;;14.10;99.90;;;;;;6149557;22;20013;-86
2022/08/21 03:52:42;;;;;;;10.85;6.60;;;14.10;99.90;;;;;;6176141;23;20028;-86
2022/08/21 03:55:08;;;;;;;11.52;6.35;;;14.10;99.90;;;;;;6174718;22;20446;-87
2022/08/21 03:57:34;;;;;;;12.27;6.07;;;14.10;99.90;;;;;;6173793;23;20028;-86
2022/08/21 03:59:59;;;;;;;12.50;7.00;;;14.10;99.90;;;;;;6150082;23;20369;-86
2022/08/21 04:02:25;;;;;;;11.20;6.82;;;14.10;99.90;;;;;;6174793;23;20035;-86
2022/08/21 04:04:50;;;;;;;12.65;5.97;;;14.10;99.90;;;;;;6174221;23;20017;-86
2022/08/21 04:07:17;;;;;;;11.15;6.18;;;14.00;99.90;;;;;;6174789;23;20025;-85
2022/08/21 04:09:44;;;;;;;13.65;7.60;;;14.00;99.90;;;;;;6176193;23;20430;-86
2022/08/21 04:12:09;;;;;;;10.07;6.68;;;14.00;99.90;;;;;;6173944;22;20021;-86
2022/08/21 04:14:35;;;;;;;11.95;6.65;;;14.00;99.90;;;;;;6176414;23;20318;-86
2022/08/21 04:17:00;;;;;;;9.82;6.70;;;14.00;99.90;;;;;;6176558;23;20025;-86
2022/08/21 04:19:26;;;;;;;13.27;7.65;;;13.90;99.90;;;;;;6149389;23;20021;-86
2022/08/21 04:21:52;;;;;;;14.70;6.55;;;13.90;99.90;;;;;;6175924;23;20248;-86
2022/08/21 04:24:18;;;;;;;13.70;7.28;;;13.90;99.90;;;;;;6174996;23;20071;-86
2022/08/21 04:26:44;;;;;;;9.20;5.80;;;13.90;99.90;;;;;;6175172;23;20473;-86
2022/08/21 04:29:09;;;;;;;10.30;6.72;;;13.90;99.90;;;;;;6149808;23;20103;-86
2022/08/21 04:31:38;;;;;;;13.27;7.13;;;13.90;99.90;;;;;;6149332;23;20013;-86
2022/08/21 04:34:04;;;;;;;12.40;6.50;;;13.80;99.90;;;;;;6176271;22;20128;-86
2022/08/21 04:36:31;;;;;;;14.98;7.70;;;13.80;99.90;;;;;;6174726;23;20017;-85
2022/08/21 04:38:57;;;;;;;14.18;6.95;;;13.80;99.90;;;;;;6174354;22;20352;-86
2022/08/21 04:41:22;;;;;;;15.13;7.47;;;13.80;99.90;;;;;;6174593;23;20021;-86
2022/08/21 04:43:49;;;;;;;14.10;7.50;;;13.80;99.90;;;;;;6175722;23;20045;-86
2022/08/21 04:46:15;;;;;;;10.63;6.22;;;13.80;99.90;;;;;;6176369;22;20009;-86
2022/08/21 04:48:41;;;;;;;13.77;7.70;;;13.90;99.90;;;;;;6175763;23;20345;-86
2022/08/21 04:51:14;;;;;;;12.77;7.55;;;13.80;99.90;;;;;;6174531;23;20021;-86
2022/08/21 04:54:02;;;;;;;11.80;7.18;;;14.70;99.90;;;;;;6176008;22;20042;-86
2022/08/21 04:56:33;;;;;;;12.10;7.70;;;13.90;99.90;;;;;;6149293;22;20104;-86
2022/08/21 04:59:03;;;;;;;9.07;6.43;;;14.10;99.90;;;;;;6176264;22;20397;-86
2022/08/21 05:01:32;;;;;;;12.93;7.30;;;13.90;99.90;;;;;;6176343;23;20017;-86
2022/08/21 05:03:59;;;;;;;14.07;7.40;;;13.90;99.90;;;;;;6174519;22;20048;-86
2022/08/21 05:06:27;;;;;;;14.73;7.95;;;13.90;99.90;;;;;;6149315;23;20314;-86
2022/08/21 05:08:55;;;;;;;11.00;7.32;;;13.90;99.90;;;;;;6175993;22;20025;-86
2022/08/21 05:11:21;;;;;;;11.40;7.03;;;13.90;99.90;;;;;;6174374;23;20298;-86
2022/08/21 05:13:48;;;;;;;11.93;7.05;;;14.00;99.90;;;;;;6148993;23;20067;-86
2022/08/21 05:16:13;;;;;;;12.52;7.82;;;13.90;99.90;;;;;;6175928;22;20070;-86
2022/08/21 05:18:39;;;;;;;17.20;8.07;;;13.90;99.90;;;;;;6174403;23;20017;-86
2022/08/21 05:21:05;;;;;;;15.30;7.45;;;14.00;99.90;;;;;;6149792;23;20028;-86
2022/08/21 05:23:31;;;;;;;10.40;6.82;;;14.00;99.90;;;;;;6176134;23;20017;-86
2022/08/21 05:25:57;;;;;;;13.88;6.63;;;14.00;99.90;;;;;;6173694;23;20053;-86
2022/08/21 05:28:23;;;;;;;13.48;7.50;;;14.00;99.90;;;;;;6174297;23;20062;-86
2022/08/21 05:30:49;;;;;;;13.18;7.60;;;14.00;99.90;;;;;;6149266;23;20103;-85
2022/08/21 05:33:14;;;;;;;12.68;7.30;;;14.00;99.90;;;;;;6173915;22;20049;-86
2022/08/21 05:35:40;;;;;;;11.10;7.63;;;14.10;99.90;;;;;;6174553;23;20017;-86
2022/08/21 05:38:06;;;;;;;12.75;7.03;;;14.00;99.90;;;;;;6174648;22;20017;-86
2022/08/21 05:40:33;;;;;;;15.00;7.97;;;14.10;99.90;;;;;;6176036;22;20021;-86
2022/08/21 05:42:59;;;;;;;13.25;7.22;;;14.10;99.90;;;;;;6174319;23;20092;-86
2022/08/21 05:45:34;;;;;;;10.48;6.50;;;14.10;99.90;;;;;;6174369;23;20017;-85
2022/08/21 05:48:11;;;;;;;10.40;7.28;;;14.20;99.90;;;;;;6176065;23;20106;-86
2022/08/21 05:50:38;;;;;;;11.15;6.90;;;14.20;99.90;;;;;;6175231;23;20354;-86
2022/08/21 05:53:05;;;;;;;10.68;7.03;;;14.20;99.90;;;;;;6149464;23;20032;-86
2022/08/21 05:55:31;;;;;;;12.23;7.15;;;14.20;99.90;;;;;;6175399;23;20045;-86
2022/08/21 05:57:56;;;;;;;11.35;6.55;;;14.30;99.90;;;;;;6149061;23;20090;-86
2022/08/21 06:00:22;;;;;;;14.10;6.63;;;14.40;99.90;;;;;;6149501;23;20390;-86
2022/08/21 06:02:49;;;;;;;12.75;7.20;;;14.40;99.90;;;;;;6149228;23;20056;-85
2022/08/21 06:05:15;;;;;;;11.57;6.70;;;14.40;99.90;;;;;;6124734;23;20039;-86
2022/08/21 06:07:41;;;;;;;11.85;7.15;;;14.40;99.90;;;;;;6124668;23;20021;-86
2022/08/21 06:10:07;;;;;;;12.20;6.72;;;14.50;99.90;;;;;;6148302;23;20062;-86
2022/08/21 06:12:32;;;;;;;12.35;6.22;;;14.50;99.90;;;;;;6124306;23;20145;-86
2022/08/21 06:14:58;;;;;;;10.57;6.13;;;14.60;99.90;;;;;;6176035;23;20421;-85
2022/08/21 06:17:23;;;;;;;14.05;6.35;;;14.60;99.90;;;;;;6149071;23;20048;-86
2022/08/21 06:19:52;;;;;;;11.02;6.30;;;14.70;99.90;;;;;;6149298;23;20337;-86
2022/08/21 06:22:19;;;;;;;14.63;5.88;;;14.80;99.90;;;;;;6149240;23;20104;-86
2022/08/21 06:24:44;;;;;;;12.38;6.35;;;14.90;99.90;;;;;;6148079;23;20096;-85
2022/08/21 06:27:10;;;;;;;15.88;6.18;;;14.90;99.90;;;;;;6124947;23;20497;-86
2022/08/21 06:29:37;;;;;;;13.40;5.75;;;15.00;99.90;;;;;;6175041;23;20084;-86
2022/08/21 06:32:04;;;;;;;12.35;5.40;;;15.10;99.90;;;;;;6148924;23;20077;-86
2022/08/21 06:34:30;;;;;;;12.35;6.25;;;15.20;99.90;;;;;;6148809;23;20020;-86
2022/08/21 06:36:55;;;;;;;11.45;5.15;;;15.20;99.90;;;;;;6149078;23;20017;-87
2022/08/21 06:39:21;;;;;;;11.82;5.25;;;15.30;99.90;;;;;;6123791;23;20017;-86
2022/08/21 06:41:47;;;;;;;12.40;5.50;;;15.40;99.90;;;;;;6148801;23;20021;-86
2022/08/21 06:44:16;;;;;;;17.08;5.38;;;15.40;99.90;;;;;;6124252;23;20060;-86
2022/08/21 06:46:42;;;;;;;15.88;5.15;;;15.50;99.90;;;;;;6148780;23;20013;-86
2022/08/21 06:49:07;;;;;;;13.48;6.22;;;15.50;99.90;;;;;;6148768;23;20017;-85
2022/08/21 06:51:33;;;;;;;12.95;4.82;;;15.60;99.90;;;;;;6174218;23;20033;-86
2022/08/21 06:53:58;;;;;;;9.38;4.60;;;15.70;99.90;;;;;;6148654;23;20020;-86
2022/08/21 06:56:24;;;;;;;12.40;5.30;;;15.80;99.90;;;;;;6124571;23;20028;-86
2022/08/21 06:58:50;;;;;;;11.27;4.65;;;15.80;99.90;;;;;;6174823;23;20028;-86
2022/08/21 07:01:15;;;;;;;14.60;4.05;;;16.00;99.90;;;;;;6124347;23;20053;-86
2022/08/21 07:03:43;;;;;;;10.88;3.90;;;16.00;99.90;;;;;;6124082;23;20021;-85
2022/08/21 07:06:10;;;;;;;15.82;4.15;;;16.10;99.90;;;;;;6148365;23;20465;-86
2022/08/21 07:08:37;;;;;;;11.32;3.95;;;16.20;99.90;;;;;;6148508;23;20070;-86
2022/08/21 07:11:07;;;;;;;12.05;3.47;;;16.30;99.90;;;;;;6149087;23;20013;-86
2022/08/21 07:13:33;;;;;;;11.05;3.60;;;16.30;99.90;;;;;;6175161;23;20057;-86
2022/08/21 07:15:58;;;;;;;9.20;3.33;;;16.40;99.90;;;;;;6124032;23;20017;-86
2022/08/21 07:18:24;;;;;;;9.10;3.13;;;16.50;99.90;;;;;;6175359;23;20017;-86
2022/08/21 07:20:50;;;;;;;9.52;2.97;;;16.50;99.90;;;;;;6147657;23;20088;-86
2022/08/21 07:23:27;;;;;;;9.18;3.08;;;16.60;99.90;;;;;;6148743;23;20032;-86
2022/08/21 07:25:53;;;;;;;13.85;3.42;;;16.70;99.90;;;;;;6148319;23;20095;-86
2022/08/21 07:28:19;;;;;;;10.27;3.30;;;16.80;99.90;;;;;;6149291;23;20413;-86
2022/08/21 07:30:45;;;;;;;11.10;2.67;;;16.90;99.90;;;;;;6147544;23;20009;-86
2022/08/21 07:33:11;;;;;;;9.07;2.75;;;17.00;99.90;;;;;;6148533;23;20017;-86
2022/08/21 07:35:37;;;;;;;11.05;2.90;;;17.00;99.90;;;;;;6147414;23;20028;-86
2022/08/21 07:38:03;;;;;;;7.55;2.97;;;17.10;99.90;;;;;;6148808;23;20020;-86
2022/08/21 07:40:29;;;;;;;10.43;2.50;;;17.10;99.90;;;;;;6176330;23;20013;-86
2022/08/21 07:42:55;;;;;;;9.27;2.33;;;17.30;99.90;;;;;;6150016;23;20555;-86
2022/08/21 07:45:24;;;;;;;10.20;2.40;;;17.30;99.90;;;;;;6149967;23;20032;-86
2022/08/21 07:47:50;;;;;;;9.50;2.08;;;17.40;99.90;;;;;;6149401;23;20017;-85
2022/08/21 07:50:15;;;;;;;10.68;2.40;;;17.40;99.90;;;;;;6159166;23;20510;-86
2022/08/21 07:52:42;;;;;;;12.38;2.70;;;17.50;99.90;;;;;;6174013;23;20056;-86
2022/08/21 07:55:10;;;;;;;7.47;2.60;;;17.60;99.90;;;;;;6175076;22;20147;-86
2022/08/21 07:57:36;;;;;;;10.13;2.50;;;17.70;99.90;;;;;;6174678;22;20017;-86
2022/08/21 08:00:05;;;;;;;10.73;2.58;;;17.70;99.90;;;;;;6176236;22;20353;-86
2022/08/21 08:02:31;;;;;;;7.53;2.60;;;17.80;99.90;;;;;;6149561;22;20013;-86
2022/08/21 08:05:06;;;;;;;10.98;2.60;;;17.90;99.90;;;;;;6174278;23;20052;-87
2022/08/21 08:07:32;;;;;;;9.43;2.47;;;17.90;99.90;;;;;;6175741;22;20341;-86
2022/08/21 08:09:58;;;;;;;8.65;2.42;;;18.00;99.90;;;;;;6174824;23;20017;-86
2022/08/21 08:12:29;;;;;;;10.98;2.90;;;18.00;99.90;;;;;;6174494;23;20486;-86
2022/08/21 08:14:58;;;;;;;9.65;2.78;;;18.20;99.90;;;;;;6174355;23;20092;-86
2022/08/21 08:17:24;;;;;;;11.88;2.50;;;18.30;99.90;;;;;;6150397;22;20351;-86
2022/08/21 08:19:50;;;;;;;10.43;2.88;;;18.40;99.90;;;;;;6175320;23;20055;-86
2022/08/21 08:22:19;;;;;;;15.25;3.05;;;18.60;99.90;;;;;;6150181;23;20461;-86
2022/08/21 08:24:45;;;;;;;9.85;2.88;;;18.60;99.90;;;;;;6174224;22;20021;-86
2022/08/21 08:27:11;;;;;;;8.18;3.03;;;19.00;99.90;;;;;;6174400;22;20020;-86
2022/08/21 08:29:37;;;;;;;9.35;2.80;;;19.00;99.90;;;;;;6174406;23;20021;-86
2022/08/21 08:32:04;;;;;;;10.95;3.03;;;19.10;99.90;;;;;;6176044;23;20090;-86
2022/08/21 08:34:30;;;;;;;12.90;2.70;;;19.30;99.90;;;;;;6176049;22;20013;-86
2022/08/21 08:36:57;;;;;;;9.30;2.80;;;19.40;99.90;;;;;;6175853;23;20062;-86
2022/08/21 08:39:23;;;;;;;8.02;2.65;;;19.60;99.90;;;;;;6174573;23;20096;-86
2022/08/21 08:41:51;;;;;;;10.27;2.33;;;19.70;99.90;;;;;;6174079;23;20404;-86
2022/08/21 08:44:16;;;;;;;9.68;2.05;;;19.80;99.90;;;;;;6176174;23;20029;-86
2022/08/21 08:46:48;;;;;;;6.82;2.05;;;19.90;99.90;;;;;;6176229;23;20059;-86
2022/08/21 08:49:23;;;;;;;11.63;2.38;;;20.00;99.90;;;;;;6175284;23;20086;-86
2022/08/21 08:52:13;;;;;;;8.68;2.10;;;20.10;99.90;;;;;;6149061;23;20029;-86
2022/08/21 08:54:45;;;;;;;11.75;3.15;;;20.30;99.90;;;;;;6175870;23;20088;-86
2022/08/21 08:57:18;;;;;;;10.13;1.92;;;20.40;99.90;;;;;;6176284;23;20013;-86
2022/08/21 09:00:08;;;;;;;9.60;1.98;;;20.50;99.90;;;;;;6149741;23;20040;-86
2022/08/21 09:02:34;;;;;;;7.40;1.80;;;20.50;99.90;;;;;;6175035;23;20017;-86
2022/08/21 09:05:00;;;;;;;11.10;2.10;;;20.70;99.90;;;;;;6125059;23;20067;-87
2022/08/21 09:07:45;;;;;;;7.85;1.60;;;20.80;99.90;;;;;;6176325;23;20071;-86
2022/08/21 09:10:26;;;;;;;10.88;1.88;;;20.90;99.90;;;;;;6176646;23;20096;-86
2022/08/21 09:13:15;;;;;;;9.50;1.77;;;21.00;99.90;;;;;;6175545;23;20017;-86
2022/08/21 09:16:13;;;;;;;9.82;2.10;;;21.10;99.90;;;;;;6149269;23;20099;-86
2022/08/21 09:18:57;;;;;;;6.38;1.50;;;21.30;99.90;;;;;;6124146;23;20013;-86
2022/08/21 09:21:41;;;;;;;10.13;1.80;;;21.40;99.90;;;;;;6149429;23;20239;-86
2022/08/21 09:24:21;;;;;;;9.88;1.75;;;21.50;99.90;;;;;;6149971;23;20340;-86
2022/08/21 09:27:11;;;;;;;7.60;1.23;;;21.60;99.90;;;;;;6175766;23;20025;-86
2022/08/21 09:29:41;;;;;;;7.57;1.90;;;21.70;99.90;;;;;;6175850;23;20342;-87
2022/08/21 09:32:18;;;;;;;7.80;2.00;;;21.80;99.90;;;;;;6148926;23;20017;-87
2022/08/21 09:35:04;;;;;;;7.60;1.80;;;21.90;99.90;;;;;;6175437;23;20356;-86
2022/08/21 09:37:31;;;;;;;8.93;2.10;;;22.00;99.90;;;;;;6125026;23;20096;-86
2022/08/21 09:39:58;;;;;;;6.75;1.38;;;22.20;99.90;;;;;;6148804;23;20021;-86
2022/08/21 09:42:28;;;;;;;9.80;1.75;;;22.20;99.90;;;;;;6148956;23;20021;-86
2022/08/21 09:45:16;;;;;;;10.35;1.80;;;22.30;99.90;;;;;;6124553;23;20112;-86
2022/08/21 09:47:43;;;;;;;9.65;1.98;;;22.50;99.90;;;;;;6148092;23;20021;-87
2022/08/21 09:50:19;;;;;;;10.18;2.22;;;22.60;99.90;;;;;;6157062;23;20025;-87
2022/08/21 09:52:50;;;;;;;10.65;2.20;;;22.60;99.90;;;;;;6175378;23;20025;-87
2022/08/21 09:58:14;;;;;;;7.38;1.70;;;22.80;99.90;;;;;;6175989;22;20021;-86
2022/08/21 10:00:40;;;;;;;8.52;1.58;;;23.00;99.90;;;;;;6174909;22;20332;-87
2022/08/21 10:03:21;;;;;;;6.93;1.98;;;22.90;99.90;;;;;;6173882;23;20017;-86
2022/08/21 10:05:59;;;;;;;10.52;1.88;;;23.00;99.90;;;;;;6149483;22;20128;-87
2022/08/21 10:08:27;;;;;;;7.18;2.05;;;23.20;99.90;;;;;;6149475;22;20021;-86
2022/08/21 10:11:24;;;;;;;7.90;1.70;;;23.30;99.90;;;;;;6149223;22;20025;-87
2022/08/21 10:13:55;;;;;;;7.88;1.95;;;23.50;99.90;;;;;;6173927;23;20345;-87
2022/08/21 10:16:58;;;;;;;4.88;1.58;;;23.60;99.90;;;;;;6148620;23;20028;-87
2022/08/21 10:19:48;;;;;;;8.32;1.73;;;23.60;99.90;;;;;;6176096;22;20013;-86
2022/08/21 10:22:31;;;;;;;11.30;2.15;;;23.40;99.90;;;;;;6176118;22;20021;-87
2022/08/21 10:25:07;;;;;;;7.57;1.80;;;23.10;99.90;;;;;;6175440;23;20021;-86
2022/08/21 10:30:14;;;;;;;8.38;2.10;;;22.70;99.90;;;;;;6174741;23;20025;-91
2022/08/21 10:32:56;;;;;;;9.85;2.10;;;22.70;99.90;;;;;;6149031;23;20074;-91
2022/08/21 10:35:33;;;;;;;9.98;2.17;;;22.50;99.90;;;;;;6149388;23;20020;-90
2022/08/21 10:38:18;;;;;;;11.43;2.13;;;22.40;99.90;;;;;;6149560;23;20453;-90
2022/08/21 10:41:05;;;;;;;7.53;1.90;;;22.50;99.90;;;;;;6175323;23;20094;-90
2022/08/21 10:43:57;;;;;;;6.53;1.65;;;22.70;99.90;;;;;;6124742;23;20029;-91
2022/08/21 10:46:41;;;;;;;9.07;1.90;;;23.00;99.90;;;;;;6175993;23;20065;-90
2022/08/21 10:49:37;;;;;;;8.75;1.60;;;23.30;99.90;;;;;;6175754;23;20021;-90
2022/08/21 10:52:24;;;;;;;9.48;1.85;;;23.70;99.90;;;;;;6149237;23;20021;-90
2022/08/21 10:55:17;;;;;;;8.13;1.25;;;24.10;99.90;;;;;;6149231;22;20009;-91
2022/08/21 10:58:11;;;;;;;7.28;1.50;;;24.40;99.90;;;;;;6177789;23;20029;-91
2022/08/21 11:00:45;;;;;;;4.28;1.20;;;24.70;97.60;;;;;;6149672;23;20521;-91
2022/08/21 11:03:16;;;;;;;6.07;1.48;;;24.90;98.50;;;;;;6175833;23;20075;-92
2022/08/21 11:05:49;;;;;;;6.90;1.85;;;25.00;98.50;;;;;;6148977;22;20039;-90
2022/08/21 11:08:28;;;;;;;6.17;1.60;;;25.10;98.50;;;;;;6175946;22;20017;-90
2022/08/21 11:11:03;;;;;;;5.35;1.17;;;25.20;98.00;;;;;;6148715;22;20263;-91
2022/08/21 11:13:38;;;;;;;7.53;1.50;;;25.30;97.30;;;;;;6148954;23;20450;-91
2022/08/21 11:16:26;;;;;;;3.95;1.40;;;25.40;97.60;;;;;;6176834;23;20080;-91
2022/08/21 11:19:15;;;;;;;6.57;1.50;;;25.40;97.50;;;;;;6150177;23;20310;-90
2022/08/21 11:22:00;;;;;;;7.57;1.33;;;25.30;96.80;;;;;;6176671;23;20331;-91
2022/08/21 11:24:50;;;;;;;5.45;1.38;;;25.20;96.10;;;;;;6176553;22;20029;-91
2022/08/21 11:27:26;;;;;;;8.00;1.85;;;25.10;96.70;;;;;;6149677;22;20013;-91
2022/08/21 11:29:57;;;;;;;6.30;1.45;;;25.00;96.90;;;;;;6288694;22;20019;-91
2022/08/21 11:32:26;;;;;;;7.05;1.73;;;24.90;97.20;;;;;;6250520;22;20030;-91
2022/08/21 11:35:17;;;;;;;7.13;1.50;;;24.70;97.80;;;;;;6275837;22;20019;-91
2022/08/21 11:38:04;;;;;;;9.27;1.83;;;24.60;98.10;;;;;;6249551;22;20379;-91
2022/08/21 11:41:01;;;;;;;8.15;1.73;;;24.40;98.10;;;;;;6250817;22;20022;-91
2022/08/21 11:43:43;;;;;;;8.75;1.50;;;24.30;97.10;;;;;;6274969;22;20032;-90
2022/08/21 11:46:13;;;;;;;6.20;1.27;;;24.20;97.90;;;;;;6276305;22;20057;-91
2022/08/21 11:49:12;;;;;;;3.85;1.10;;;24.10;98.20;;;;;;6275740;22;20022;-91
2022/08/21 11:51:43;;;;;;;4.72;1.10;;;23.90;97.90;;;;;;6303191;22;20023;-91
2022/08/21 11:54:35;;;;;;;6.45;1.27;;;23.80;99.10;;;;;;6275853;22;20011;-91
2022/08/21 11:57:19;;;;;;;7.07;1.52;;;23.60;98.80;;;;;;6275557;22;20366;-90
2022/08/21 11:59:49;;;;;;;6.45;1.38;;;23.50;99.60;;;;;;6275642;22;20018;-91
2022/08/21 12:02:20;;;;;;;11.20;2.05;;;23.60;99.70;;;;;;6275956;22;20011;-91
2022/08/21 12:04:51;;;;;;;7.00;1.92;;;23.80;99.70;;;;;;6303359;22;20020;-91
2022/08/21 12:07:34;;;;;;;7.13;1.48;;;23.80;99.60;;;;;;6303474;22;20086;-91
2022/08/21 12:10:03;;;;;;;9.03;2.10;;;23.90;99.60;;;;;;6275760;22;20090;-91
2022/08/21 12:12:35;;;;;;;6.43;1.45;;;23.90;99.90;;;;;;6302974;22;20019;-91
2022/08/21 12:15:24;;;;;;;10.25;1.92;;;24.20;99.80;;;;;;6303467;22;20010;-91
2022/08/21 12:17:59;;;;;;;4.95;1.42;;;24.10;99.90;;;;;;6303691;22;20086;-90
2022/08/21 12:21:23;;;;;;;7.65;2.00;;;24.30;99.80;;;;;;6275516;22;20078;-91
2022/08/21 12:24:15;;;;;;;8.70;1.70;;;24.20;99.10;;;;;;6146968;23;20454;-91
2022/08/21 12:26:58;;;;;;;6.32;1.42;;;24.20;99.50;;;;;;6147414;23;20017;-92
2022/08/21 12:29:29;;;;;;;11.38;2.20;;;24.30;99.50;;;;;;6189841;23;20020;-91
2022/08/21 12:31:57;;;;;;;11.32;1.60;;;24.40;99.20;;;;;;6182732;23;20052;-91
2022/08/21 12:34:30;;;;;;;5.47;1.65;;;24.50;99.10;;;;;;6208333;23;20353;-91
2022/08/21 12:37:29;;;;;;;7.47;1.35;;;24.50;98.60;;;;;;6207762;23;20095;-91
2022/08/21 12:39:59;;;;;;;11.30;1.65;;;24.50;97.90;;;;;;6180908;23;20070;-90
2022/08/21 12:42:38;;;;;;;11.73;1.80;;;24.50;98.10;;;;;;6182950;23;20097;-91
2022/08/21 12:45:17;;;;;;;5.50;1.30;;;24.40;98.00;;;;;;6208135;23;20385;-91
2022/08/21 12:47:57;;;;;;;14.35;2.25;;;24.40;98.20;;;;;;6207494;23;20021;-91
2022/08/21 12:50:44;;;;;;;3.90;1.33;;;24.40;98.20;;;;;;6208355;23;20758;-92
2022/08/21 12:53:24;;;;;;;6.35;1.90;;;24.50;98.20;;;;;;6181278;23;20012;-92
2022/08/21 12:55:51;;;;;;;8.35;1.75;;;24.50;98.20;;;;;;6173772;23;20039;-91
2022/08/21 12:58:21;;;;;;;8.60;1.67;;;24.50;98.10;;;;;;6175103;23;20344;-91
2022/08/21 13:00:51;;;;;;;8.90;1.40;;;24.40;98.00;;;;;;6176178;23;20017;-91
2022/08/21 13:03:17;;;;;;;8.35;1.90;;;24.40;97.50;;;;;;6176764;23;20086;-91
2022/08/21 13:05:43;;;;;;;10.25;1.80;;;24.20;97.80;;;;;;6173873;23;20449;-92